createdAt,value
2022-12-09T00:02:08.360Z,0.60
2022-12-09T00:04:37.040Z,0.47
2022-12-09T00:07:05.721Z,0.57
2022-12-09T00:09:34.021Z,0.70
2022-12-09T00:12:02.538Z,0.55
2022-12-09T00:14:31.045Z,0.50
2022-12-09T00:16:59.653Z,0.50
2022-12-09T00:19:28.037Z,0.85
2022-12-09T00:21:56.329Z,0.63
2022-12-09T00:24:24.640Z,0.80
2022-12-09T00:26:53.040Z,0.88
2022-12-09T00:29:21.501Z,0.80
2022-12-09T00:31:49.914Z,0.57
2022-12-09T00:34:18.908Z,0.68
2022-12-09T00:36:47.690Z,0.50
2022-12-09T00:39:16.305Z,0.70
2022-12-09T00:41:44.868Z,0.55
2022-12-09T00:44:14.320Z,0.98
2022-12-09T00:46:42.739Z,0.73
2022-12-09T00:49:12.701Z,0.90
2022-12-09T00:51:41.333Z,0.80
2022-12-09T00:54:09.827Z,1.20
2022-12-09T00:56:38.696Z,0.80
2022-12-09T00:59:07.108Z,0.57
2022-12-09T01:01:35.817Z,0.60
2022-12-09T01:04:09.324Z,0.70
2022-12-09T01:06:38.071Z,0.70
2022-12-09T01:09:06.939Z,0.50
2022-12-09T01:11:37.768Z,0.40
2022-12-09T01:14:06.231Z,0.73
2022-12-09T01:16:35.832Z,0.70
2022-12-09T01:19:08.611Z,0.63
2022-12-09T01:21:37.557Z,0.60
2022-12-09T01:24:11.605Z,0.65
2022-12-09T01:26:40.446Z,0.35
2022-12-09T01:29:09.125Z,1.00
2022-12-09T01:31:37.636Z,0.77
2022-12-09T01:34:06.531Z,0.73
2022-12-09T01:36:35.069Z,0.70
2022-12-09T01:39:03.478Z,0.80
2022-12-09T01:41:31.873Z,0.93
2022-12-09T01:44:23.783Z,1.88
2022-12-09T01:46:57.494Z,2.00
2022-12-09T01:49:48.872Z,1.17
2022-12-09T01:52:25.052Z,1.15
2022-12-09T01:54:54.189Z,1.48
2022-12-09T01:57:22.796Z,1.40
2022-12-09T01:59:51.306Z,0.88
2022-12-09T02:02:21.452Z,1.00
2022-12-09T02:04:51.711Z,1.00
2022-12-09T02:07:20.519Z,0.85
2022-12-09T02:09:56.627Z,0.90
2022-12-09T02:12:53.908Z,0.80
2022-12-09T02:15:46.167Z,0.80
2022-12-09T02:18:37.939Z,0.82
2022-12-09T02:21:13.748Z,0.90
2022-12-09T02:23:54.923Z,1.00
2022-12-09T02:26:38.042Z,1.17
2022-12-09T02:29:31.315Z,1.00
2022-12-09T02:32:14.559Z,0.98
2022-12-09T02:34:49.294Z,0.73
2022-12-09T02:40:09.649Z,1.27
2022-12-09T02:42:40.655Z,1.50
2022-12-09T02:45:11.848Z,1.08
2022-12-09T02:47:44.227Z,1.10
2022-12-09T02:50:16.261Z,1.50
2022-12-09T02:52:46.238Z,1.00
2022-12-09T02:55:18.044Z,0.88
2022-12-09T02:57:46.727Z,1.00
2022-12-09T03:00:16.485Z,0.98
2022-12-09T03:02:52.402Z,1.05
2022-12-09T03:05:35.437Z,1.10
2022-12-09T03:08:25.551Z,1.17
2022-12-09T03:11:05.771Z,1.00
2022-12-09T03:14:00.907Z,0.93
2022-12-09T03:16:45.614Z,1.08
2022-12-09T03:19:32.007Z,1.02
2022-12-09T03:22:06.684Z,1.15
2022-12-09T03:24:40.693Z,1.10
2022-12-09T03:27:13.739Z,1.10
2022-12-09T03:29:46.799Z,0.82
2022-12-09T03:32:19.606Z,1.08
2022-12-09T03:34:52.055Z,1.02
2022-12-09T03:37:22.545Z,0.90
2022-12-09T03:39:52.448Z,0.77
2022-12-09T03:42:27.843Z,1.15
2022-12-09T03:45:08.925Z,0.80
2022-12-09T03:47:38.348Z,0.90
2022-12-09T03:50:09.107Z,0.90
2022-12-09T03:52:44.299Z,0.85
2022-12-09T03:55:31.615Z,1.17
2022-12-09T03:58:04.349Z,1.00
2022-12-09T04:00:32.919Z,1.10
2022-12-09T04:03:01.787Z,1.23
2022-12-09T04:05:30.200Z,1.02
2022-12-09T04:07:58.897Z,1.10
2022-12-09T04:10:27.661Z,0.90
2022-12-09T04:12:56.436Z,0.90
2022-12-09T04:15:25.202Z,0.70
2022-12-09T04:17:54.063Z,1.00
2022-12-09T04:20:22.611Z,0.85
2022-12-09T04:22:51.102Z,1.00
2022-12-09T04:25:19.507Z,0.88
2022-12-09T04:27:47.995Z,1.27
2022-12-09T04:30:16.600Z,0.63
2022-12-09T04:32:45.326Z,1.00
2022-12-09T04:35:13.838Z,1.10
2022-12-09T04:37:42.134Z,0.80
2022-12-09T04:40:11.307Z,0.80
2022-12-09T04:42:40.437Z,0.65
2022-12-09T04:45:09.933Z,1.17
2022-12-09T04:47:38.330Z,1.10
2022-12-09T04:50:07.783Z,0.70
2022-12-09T04:52:36.769Z,0.98
2022-12-09T04:55:05.609Z,0.80
2022-12-09T04:57:34.157Z,0.85
2022-12-09T05:00:03.067Z,0.93
2022-12-09T05:02:31.582Z,0.80
2022-12-09T05:05:02.876Z,0.70
2022-12-09T05:07:32.292Z,0.90
2022-12-09T05:10:01.370Z,0.90
2022-12-09T05:12:29.772Z,0.75
2022-12-09T05:14:59.666Z,1.00
2022-12-09T05:17:28.403Z,1.17
2022-12-09T05:19:56.973Z,1.33
2022-12-09T05:22:25.548Z,1.20
2022-12-09T05:24:54.196Z,1.63
2022-12-09T05:27:23.974Z,1.80
2022-12-09T05:29:52.551Z,1.95
2022-12-09T05:32:20.942Z,1.63
2022-12-09T05:34:50.145Z,1.70
2022-12-09T05:37:18.835Z,1.50
2022-12-09T05:39:47.127Z,1.70
2022-12-09T05:42:15.452Z,1.80
2022-12-09T05:44:43.838Z,1.75
2022-12-09T05:47:12.174Z,1.60
2022-12-09T05:49:40.747Z,1.90
2022-12-09T05:52:11.049Z,1.40
2022-12-09T05:54:40.028Z,1.20
2022-12-09T05:57:09.309Z,1.20
2022-12-09T05:59:38.187Z,1.25
2022-12-09T06:02:10.022Z,1.10
2022-12-09T06:04:39.277Z,1.02
2022-12-09T06:07:07.924Z,1.05
2022-12-09T06:09:36.459Z,1.20
2022-12-09T06:12:06.039Z,1.00
2022-12-09T06:14:34.829Z,1.00
2022-12-09T06:17:04.056Z,1.00
2022-12-09T06:19:33.369Z,1.05
2022-12-09T06:22:02.052Z,0.80
2022-12-09T06:24:30.832Z,0.90
2022-12-09T06:26:59.605Z,0.98
2022-12-09T06:29:28.223Z,0.70
2022-12-09T06:31:56.898Z,0.82
2022-12-09T06:34:25.735Z,0.60
2022-12-09T06:36:54.863Z,0.40
2022-12-09T06:39:23.443Z,0.80
2022-12-09T06:41:52.141Z,0.70
2022-12-09T06:44:23.753Z,0.90
2022-12-09T06:46:53.034Z,0.50
2022-12-09T06:49:21.671Z,0.52
2022-12-09T06:51:50.606Z,0.40
2022-12-09T06:54:19.344Z,0.70
2022-12-09T06:56:48.374Z,0.60
2022-12-09T06:59:17.497Z,0.60
2022-12-09T07:01:46.925Z,0.50
2022-12-09T07:04:16.695Z,0.90
2022-12-09T07:06:47.089Z,0.82
2022-12-09T07:09:21.454Z,0.90
2022-12-09T07:14:20.122Z,0.93
2022-12-09T07:16:48.982Z,1.00
2022-12-09T07:19:23.401Z,1.00
2022-12-09T07:21:53.210Z,1.02
2022-12-09T07:24:22.011Z,0.90
2022-12-09T07:26:53.881Z,1.00
2022-12-09T07:29:22.387Z,1.20
2022-12-09T07:31:51.318Z,1.20
2022-12-09T07:34:20.250Z,1.00
2022-12-09T07:36:48.823Z,1.13
2022-12-09T07:39:19.887Z,1.10
2022-12-09T07:42:00.197Z,1.25
2022-12-09T07:44:29.636Z,1.00
2022-12-09T07:46:59.387Z,1.20
2022-12-09T07:49:28.241Z,1.20
2022-12-09T07:51:56.719Z,1.17
2022-12-09T07:54:25.275Z,1.27
2022-12-09T07:56:53.717Z,1.30
2022-12-09T07:59:22.370Z,1.20
2022-12-09T08:01:51.032Z,1.45
2022-12-09T08:04:19.903Z,1.20
2022-12-09T08:06:48.522Z,1.40
2022-12-09T08:09:17.609Z,1.20
2022-12-09T08:11:46.312Z,1.42
2022-12-09T08:14:15.113Z,1.30
2022-12-09T08:16:44.712Z,1.63
2022-12-09T08:19:14.559Z,1.00
2022-12-09T08:21:45.563Z,1.10
2022-12-09T08:24:17.148Z,1.35
2022-12-09T08:26:45.918Z,1.23
2022-12-09T08:29:15.266Z,1.27
2022-12-09T08:31:45.206Z,1.10
2022-12-09T08:34:14.585Z,1.38
2022-12-09T08:36:44.303Z,1.25
2022-12-09T08:39:14.885Z,1.35
2022-12-09T08:41:44.870Z,1.15
2022-12-09T08:44:17.960Z,1.50
2022-12-09T08:46:49.275Z,1.50
2022-12-09T08:49:21.108Z,1.27
2022-12-09T08:51:52.015Z,1.33
2022-12-09T08:54:20.866Z,1.42
2022-12-09T08:56:56.408Z,1.20
2022-12-09T08:59:26.166Z,1.30
2022-12-09T09:01:55.503Z,1.60
2022-12-09T09:04:24.481Z,1.40
2022-12-09T09:06:53.937Z,1.27
2022-12-09T09:09:23.783Z,1.58
2022-12-09T09:11:52.775Z,1.73
2022-12-09T09:14:21.368Z,1.58
2022-12-09T09:16:50.723Z,1.42
2022-12-09T09:19:22.645Z,1.70
2022-12-09T09:21:51.684Z,1.48
2022-12-09T09:24:22.931Z,1.58
2022-12-09T09:26:54.039Z,1.60
2022-12-09T09:29:24.741Z,1.70
2022-12-09T09:31:56.568Z,1.25
2022-12-09T09:34:27.237Z,1.35
2022-12-09T09:36:57.855Z,1.27
2022-12-09T09:39:26.722Z,1.38
2022-12-09T09:42:08.725Z,1.27
2022-12-09T09:44:48.751Z,1.35
2022-12-09T09:47:38.803Z,1.45
2022-12-09T09:50:26.603Z,1.30
2022-12-09T09:52:57.577Z,1.30
2022-12-09T09:55:33.907Z,1.33
2022-12-09T09:58:23.838Z,1.27
2022-12-09T10:00:57.504Z,1.20
2022-12-09T10:03:52.405Z,1.10
2022-12-09T10:06:39.550Z,1.20
2022-12-09T10:09:42.451Z,1.30
2022-12-09T10:12:16.742Z,1.17
2022-12-09T10:15:11.073Z,1.30
2022-12-09T10:17:45.901Z,1.10
2022-12-09T10:20:28.610Z,1.10
2022-12-09T10:23:02.034Z,1.23
2022-12-09T10:25:34.632Z,0.98
2022-12-09T10:28:19.452Z,0.98
2022-12-09T10:30:49.439Z,0.95
2022-12-09T10:33:22.463Z,1.23
2022-12-09T10:35:51.264Z,1.10
2022-12-09T10:38:22.890Z,1.10
2022-12-09T10:41:03.703Z,1.17
2022-12-09T10:43:43.283Z,1.10
2022-12-09T10:46:19.205Z,1.08
2022-12-09T10:48:49.295Z,1.10
2022-12-09T10:51:22.906Z,1.10
2022-12-09T10:54:06.954Z,1.15
2022-12-09T10:57:00.125Z,1.10
2022-12-09T10:59:31.427Z,0.77
2022-12-09T11:02:22.203Z,1.05
2022-12-09T11:04:51.873Z,1.02
2022-12-09T11:07:24.612Z,0.90
2022-12-09T11:10:08.887Z,1.15
2022-12-09T11:12:41.303Z,1.00
2022-12-09T11:15:13.607Z,0.90
2022-12-09T11:17:56.875Z,1.00
2022-12-09T11:20:31.641Z,1.00
2022-12-09T11:23:07.631Z,1.00
2022-12-09T11:25:38.533Z,1.20
2022-12-09T11:28:36.771Z,1.20
2022-12-09T11:31:29.570Z,1.23
2022-12-09T11:34:03.587Z,1.25
2022-12-09T11:36:36.926Z,0.93
2022-12-09T11:39:25.402Z,1.23
2022-12-09T11:42:19.422Z,1.05
2022-12-09T11:45:45.239Z,1.08
2022-12-09T11:48:36.207Z,1.00
2022-12-09T11:51:07.958Z,1.10
2022-12-09T11:53:41.978Z,1.27
2022-12-09T11:56:24.087Z,1.10
2022-12-09T11:58:57.864Z,1.40
2022-12-09T12:01:31.289Z,0.90
2022-12-09T12:04:09.200Z,1.20
2022-12-09T12:06:51.956Z,1.15
2022-12-09T12:09:31.159Z,1.20
2022-12-09T12:12:23.768Z,0.98
2022-12-09T12:14:52.118Z,1.25
2022-12-09T12:17:44.465Z,1.13
2022-12-09T12:20:16.445Z,1.00
2022-12-09T12:23:10.679Z,1.27
2022-12-09T12:26:05.078Z,1.30
2022-12-09T12:28:57.336Z,1.07
2022-12-09T12:31:48.484Z,1.10
2022-12-09T12:34:43.966Z,1.02
2022-12-09T12:37:40.894Z,1.08
2022-12-09T12:40:34.526Z,1.20
2022-12-09T12:43:42.439Z,1.23
2022-12-09T12:46:32.198Z,1.20
2022-12-09T12:49:22.008Z,1.20
2022-12-09T12:52:54.896Z,1.20
2022-12-09T12:55:37.023Z,1.20
2022-12-09T12:58:18.198Z,1.20
2022-12-09T13:01:14.236Z,1.20
2022-12-09T13:03:55.676Z,1.35
2022-12-09T13:07:03.312Z,1.30
2022-12-09T13:09:43.318Z,1.38
2022-12-09T13:12:45.182Z,1.30
2022-12-09T13:15:16.564Z,1.40
2022-12-09T13:17:48.439Z,1.25
2022-12-09T13:20:32.439Z,1.45
2022-12-09T13:23:16.409Z,1.33
2022-12-09T13:26:21.864Z,1.40
2022-12-09T13:29:14.018Z,1.45
2022-12-09T13:31:59.428Z,1.50
2022-12-09T13:34:55.595Z,1.30
2022-12-09T13:37:56.868Z,1.20
2022-12-09T13:40:38.679Z,1.40
2022-12-09T13:43:15.798Z,1.50
2022-12-09T13:45:44.229Z,1.35
2022-12-09T13:48:17.092Z,1.35
2022-12-09T13:50:58.358Z,1.50
2022-12-09T13:53:45.705Z,1.60
2022-12-09T13:56:17.595Z,1.40
2022-12-09T13:59:27.134Z,1.50
2022-12-09T14:02:15.964Z,1.67
2022-12-09T14:04:59.458Z,1.50
2022-12-09T14:07:37.053Z,1.63
2022-12-09T14:10:06.832Z,1.52
2022-12-09T14:12:38.386Z,1.70
2022-12-09T14:15:29.280Z,1.35
2022-12-09T14:18:02.841Z,1.50
2022-12-09T14:20:36.279Z,1.63
2022-12-09T14:23:13.558Z,1.50
2022-12-09T14:26:01.189Z,1.60
2022-12-09T14:28:35.302Z,1.30
2022-12-09T14:31:08.666Z,1.50
2022-12-09T14:33:45.529Z,1.30
2022-12-09T14:36:16.601Z,1.50
2022-12-09T14:39:25.883Z,1.65
2022-12-09T14:42:09.404Z,1.90
2022-12-09T14:44:43.594Z,1.90
2022-12-09T14:47:27.537Z,1.90
2022-12-09T14:49:57.734Z,1.55
2022-12-09T14:52:33.889Z,1.50
2022-12-09T14:55:07.945Z,1.45
2022-12-09T14:57:45.089Z,1.70
2022-12-09T15:00:34.851Z,1.63
2022-12-09T15:03:39.455Z,1.50
2022-12-09T15:06:14.298Z,1.60
2022-12-09T15:08:43.722Z,1.52
2022-12-09T15:11:20.914Z,1.70
2022-12-09T15:13:52.582Z,1.58
2022-12-09T15:16:24.982Z,1.83
2022-12-09T15:18:55.717Z,1.48
2022-12-09T15:21:33.891Z,1.50
2022-12-09T15:24:02.628Z,1.52
2022-12-09T15:26:33.879Z,1.50
2022-12-09T15:29:05.995Z,1.67
2022-12-09T15:31:36.119Z,1.50
2022-12-09T15:34:26.175Z,1.60
2022-12-09T15:37:05.281Z,1.70
2022-12-09T15:40:09.250Z,1.70
2022-12-09T15:42:41.450Z,2.10
2022-12-09T15:45:16.722Z,2.05
2022-12-09T15:47:51.503Z,1.92
2022-12-09T15:50:37.065Z,2.30
2022-12-09T15:53:29.811Z,2.08
2022-12-09T15:56:05.665Z,2.00
2022-12-09T15:58:41.255Z,1.88
2022-12-09T16:01:10.366Z,1.80
2022-12-09T16:03:39.664Z,1.52
2022-12-09T16:06:10.259Z,1.80
2022-12-09T16:08:41.520Z,1.70
2022-12-09T16:11:10.904Z,2.00
2022-12-09T16:13:59.483Z,1.92
2022-12-09T16:16:43.235Z,1.70
2022-12-09T16:19:36.936Z,1.90
2022-12-09T16:22:18.200Z,1.60
2022-12-09T16:25:13.654Z,1.55
2022-12-09T16:27:41.196Z,1.25
2022-12-09T16:30:18.921Z,1.27
2022-12-09T16:32:51.663Z,1.30
2022-12-09T16:35:25.229Z,1.55
2022-12-09T16:37:59.805Z,1.33
2022-12-09T16:40:29.406Z,1.15
2022-12-09T16:43:17.879Z,1.20
2022-12-09T16:45:50.267Z,1.20
2022-12-09T16:48:20.273Z,1.20
2022-12-09T16:51:13.776Z,1.23
2022-12-09T16:53:53.110Z,1.38
2022-12-09T16:56:24.125Z,1.50
2022-12-09T16:58:53.244Z,1.40
2022-12-09T17:01:24.496Z,1.50
2022-12-09T17:04:18.950Z,1.58
2022-12-09T17:06:47.487Z,1.40
2022-12-09T17:09:16.069Z,1.30
2022-12-09T17:11:48.803Z,1.38
2022-12-09T17:14:18.854Z,1.40
2022-12-09T17:16:47.378Z,1.65
2022-12-09T17:19:16.054Z,1.30
2022-12-09T17:21:44.441Z,1.30
2022-12-09T17:24:13.031Z,1.30
2022-12-09T17:26:41.701Z,1.10
2022-12-09T17:29:10.366Z,1.20
2022-12-09T17:31:38.713Z,1.27
2022-12-09T17:34:07.169Z,1.67
2022-12-09T17:36:35.491Z,1.25
2022-12-09T17:39:06.404Z,1.50
2022-12-09T17:41:34.950Z,1.30
2022-12-09T17:44:03.329Z,1.38
2022-12-09T17:46:31.844Z,1.30
2022-12-09T17:49:03.480Z,1.20
2022-12-09T17:51:36.001Z,1.13
2022-12-09T17:54:05.297Z,1.40
2022-12-09T17:56:33.699Z,1.55
2022-12-09T17:59:06.080Z,1.30
2022-12-09T18:01:37.089Z,1.63
2022-12-09T18:04:10.547Z,1.42
2022-12-09T18:06:44.190Z,1.30
2022-12-09T18:09:16.399Z,1.42
2022-12-09T18:11:45.400Z,1.35
2022-12-09T18:14:13.884Z,1.15
2022-12-09T18:16:42.505Z,0.93
2022-12-09T18:19:17.559Z,1.10
2022-12-09T18:21:46.570Z,1.20
2022-12-09T18:24:15.004Z,1.20
2022-12-09T18:26:44.277Z,1.30
2022-12-09T18:29:14.045Z,1.25
2022-12-09T18:31:42.534Z,1.58
2022-12-09T18:34:10.809Z,1.50
2022-12-09T18:36:39.594Z,1.60
2022-12-09T18:39:08.423Z,1.80
2022-12-09T18:41:36.825Z,1.30
2022-12-09T18:44:07.974Z,1.50
2022-12-09T18:46:39.562Z,2.05
2022-12-09T18:49:20.429Z,1.83
2022-12-09T18:51:50.378Z,1.73
2022-12-09T18:54:21.920Z,1.90
2022-12-09T18:56:50.863Z,1.85
2022-12-09T18:59:20.386Z,1.70
2022-12-09T19:01:49.586Z,1.58
2022-12-09T19:04:21.084Z,1.60
2022-12-09T19:06:51.323Z,1.50
2022-12-09T19:09:22.887Z,1.80
2022-12-09T19:11:53.120Z,1.33
2022-12-09T19:14:23.621Z,1.58
2022-12-09T19:16:53.541Z,1.30
2022-12-09T19:19:24.449Z,1.38
2022-12-09T19:21:54.137Z,1.27
2022-12-09T19:24:26.526Z,1.30
2022-12-09T19:26:57.565Z,1.30
2022-12-09T19:29:27.549Z,1.40
2022-12-09T19:31:58.122Z,1.30
2022-12-09T19:34:28.903Z,1.30
2022-12-09T19:36:59.868Z,1.20
2022-12-09T19:39:32.152Z,1.50
2022-12-09T19:42:01.064Z,1.35
2022-12-09T19:45:00.823Z,1.20
2022-12-09T19:47:18.961Z,1.10
2022-12-09T19:49:47.219Z,1.27
2022-12-09T19:52:15.597Z,1.45
2022-12-09T19:54:43.925Z,1.17
2022-12-09T19:57:12.283Z,1.45
2022-12-09T19:59:40.588Z,1.05
2022-12-09T20:02:12.858Z,1.30
2022-12-09T20:04:49.933Z,1.48
2022-12-09T20:07:19.383Z,1.17
2022-12-09T20:09:47.747Z,1.02
2022-12-09T20:12:16.205Z,1.35
2022-12-09T20:14:45.184Z,0.68
2022-12-09T20:17:13.498Z,1.13
2022-12-09T20:19:41.836Z,1.08
2022-12-09T20:22:10.294Z,1.00
2022-12-09T20:24:38.764Z,1.00
2022-12-09T20:27:07.224Z,1.20
2022-12-09T20:29:38.010Z,1.17
2022-12-09T20:32:09.289Z,1.13
2022-12-09T20:34:37.673Z,1.40
2022-12-09T20:37:06.629Z,1.38
2022-12-09T20:39:35.104Z,1.13
2022-12-09T20:42:03.570Z,0.80
2022-12-09T20:44:33.343Z,1.17
2022-12-09T20:47:01.664Z,1.23
2022-12-09T20:49:31.262Z,0.98
2022-12-09T20:51:59.746Z,1.17
2022-12-09T20:54:28.185Z,1.20
2022-12-09T20:56:56.663Z,1.48
2022-12-09T20:59:25.151Z,1.20
2022-12-09T21:01:55.099Z,1.00
2022-12-09T21:04:24.171Z,1.25
2022-12-09T21:06:52.844Z,1.10
2022-12-09T21:09:23.784Z,0.98
2022-12-09T21:11:52.234Z,1.08
2022-12-09T21:14:21.631Z,0.93
2022-12-09T21:16:53.250Z,1.20
2022-12-09T21:19:25.833Z,0.98
2022-12-09T21:21:55.405Z,0.95
2022-12-09T21:24:25.664Z,1.02
2022-12-09T21:26:56.339Z,1.00
2022-12-09T21:29:31.557Z,1.25
2022-12-09T21:32:01.229Z,0.75
2022-12-09T21:34:29.641Z,0.93
2022-12-09T21:36:58.234Z,1.63
2022-12-09T21:39:27.277Z,1.50
2022-12-09T21:41:56.146Z,1.50
2022-12-09T21:44:26.424Z,1.52
2022-12-09T21:46:55.100Z,1.60
2022-12-09T21:49:23.704Z,1.83
2022-12-09T21:51:52.223Z,1.63
2022-12-09T21:54:20.539Z,1.40
2022-12-09T21:56:49.003Z,1.50
2022-12-09T21:59:17.423Z,1.48
2022-12-09T22:01:45.857Z,1.42
2022-12-09T22:04:17.387Z,1.40
2022-12-09T22:06:50.947Z,1.35
2022-12-09T22:09:21.984Z,1.60
2022-12-09T22:11:50.594Z,1.50
2022-12-09T22:14:19.043Z,1.27
2022-12-09T22:16:47.578Z,1.52
2022-12-09T22:19:21.834Z,1.20
2022-12-09T22:21:50.805Z,1.33
2022-12-09T22:24:20.162Z,1.50
2022-12-09T22:26:48.818Z,1.10
2022-12-09T22:29:18.639Z,1.40
2022-12-09T22:31:47.759Z,1.67
2022-12-09T22:34:19.173Z,1.10
2022-12-09T22:36:49.381Z,1.30
2022-12-09T22:39:20.504Z,1.40
2022-12-09T22:41:49.498Z,1.00
2022-12-09T22:44:20.807Z,1.40
2022-12-09T22:46:49.548Z,1.40
2022-12-09T22:49:18.777Z,1.30
2022-12-09T22:51:47.917Z,1.10
2022-12-09T22:54:16.553Z,1.10
2022-12-09T22:56:45.824Z,0.90
2022-12-09T22:59:15.022Z,1.00
2022-12-09T23:01:50.540Z,1.40
2022-12-09T23:04:24.523Z,1.02
2022-12-09T23:06:53.124Z,1.13
2022-12-09T23:09:26.258Z,0.77
2022-12-09T23:11:54.748Z,1.10
2022-12-09T23:14:23.244Z,1.02
2022-12-09T23:16:51.593Z,1.00
2022-12-09T23:19:20.219Z,0.82
2022-12-09T23:21:48.708Z,0.90
2022-12-09T23:24:24.330Z,0.57
2022-12-09T23:26:55.629Z,0.80
2022-12-09T23:29:24.067Z,0.60
2022-12-09T23:31:52.562Z,0.65
2022-12-09T23:34:21.123Z,0.63
2022-12-09T23:36:49.502Z,0.70
2022-12-09T23:39:19.854Z,0.60
2022-12-09T23:41:48.863Z,0.60
2022-12-09T23:44:19.424Z,0.45
2022-12-09T23:46:47.882Z,0.40
2022-12-09T23:49:16.716Z,0.40
2022-12-09T23:51:45.070Z,0.50
2022-12-09T23:54:15.504Z,0.50
2022-12-09T23:56:51.742Z,0.52
2022-12-09T23:59:22.464Z,0.40
